sensor_id;sensor_type;location;lat;lon;timestamp;pressure;altitude;pressure_sealevel;temperature;humidity
75609;BME280;64194;51.044;13.780;2022-11-15T00:04:13;100381.09;;;7.80;80.65
75609;BME280;64194;51.044;13.780;2022-11-15T00:08:34;100389.59;;;7.87;80.39
75609;BME280;64194;51.044;13.780;2022-11-15T00:12:53;100384.13;;;7.73;80.98
75609;BME280;64194;51.044;13.780;2022-11-15T00:17:13;100377.59;;;7.63;81.18
75609;BME280;64194;51.044;13.780;2022-11-15T00:21:33;100365.38;;;7.60;81.29
75609;BME280;64194;51.044;13.780;2022-11-15T00:25:55;100364.44;;;7.61;81.27
75609;BME280;64194;51.044;13.780;2022-11-15T00:30:16;100365.28;;;7.62;81.40
75609;BME280;64194;51.044;13.780;2022-11-15T00:34:36;100369.16;;;7.54;81.71
75609;BME280;64194;51.044;13.780;2022-11-15T00:38:56;100374.16;;;7.61;81.74
75609;BME280;64194;51.044;13.780;2022-11-15T00:43:16;100358.94;;;7.66;81.39
75609;BME280;64194;51.044;13.780;2022-11-15T00:47:36;100358.84;;;7.67;81.09
75609;BME280;64194;51.044;13.780;2022-11-15T00:51:57;100361.00;;;7.59;81.38
75609;BME280;64194;51.044;13.780;2022-11-15T00:56:17;100364.59;;;7.58;81.23
75609;BME280;64194;51.044;13.780;2022-11-15T01:00:37;100351.69;;;7.52;82.01
75609;BME280;64194;51.044;13.780;2022-11-15T01:04:57;100355.19;;;7.52;81.98
75609;BME280;64194;51.044;13.780;2022-11-15T01:09:17;100347.38;;;7.49;82.05
75609;BME280;64194;51.044;13.780;2022-11-15T01:13:38;100343.66;;;7.53;82.07
75609;BME280;64194;51.044;13.780;2022-11-15T01:17:59;100345.06;;;7.61;81.66
75609;BME280;64194;51.044;13.780;2022-11-15T01:22:19;100342.44;;;7.61;81.67
75609;BME280;64194;51.044;13.780;2022-11-15T01:26:39;100350.28;;;7.62;81.54
75609;BME280;64194;51.044;13.780;2022-11-15T01:31:00;100347.44;;;7.67;81.66
75609;BME280;64194;51.044;13.780;2022-11-15T01:35:21;100329.25;;;7.78;80.98
75609;BME280;64194;51.044;13.780;2022-11-15T01:39:41;100332.69;;;7.80;80.91
75609;BME280;64194;51.044;13.780;2022-11-15T01:48:54;100325.38;;;7.85;80.86
75609;BME280;64194;51.044;13.780;2022-11-15T01:53:17;100326.38;;;7.82;80.97
75609;BME280;64194;51.044;13.780;2022-11-15T01:57:41;100320.41;;;7.79;81.08
75609;BME280;64194;51.044;13.780;2022-11-15T02:02:03;100314.94;;;7.82;81.03
75609;BME280;64194;51.044;13.780;2022-11-15T02:06:23;100305.28;;;7.81;81.20
75609;BME280;64194;51.044;13.780;2022-11-15T02:10:43;100300.16;;;7.78;81.36
75609;BME280;64194;51.044;13.780;2022-11-15T02:15:04;100295.81;;;7.77;81.29
75609;BME280;64194;51.044;13.780;2022-11-15T02:33:36;100286.00;;;7.62;81.80
75609;BME280;64194;51.044;13.780;2022-11-15T02:38:06;100285.16;;;7.61;81.96
75609;BME280;64194;51.044;13.780;2022-11-15T02:42:33;100274.97;;;7.71;82.06
75609;BME280;64194;51.044;13.780;2022-11-15T02:47:16;100261.91;;;7.68;81.49
75609;BME280;64194;51.044;13.780;2022-11-15T02:51:38;100265.41;;;7.68;81.56
75609;BME280;64194;51.044;13.780;2022-11-15T02:55:59;100259.72;;;7.58;81.80
75609;BME280;64194;51.044;13.780;2022-11-15T03:00:20;100261.59;;;7.56;82.03
75609;BME280;64194;51.044;13.780;2022-11-15T03:04:54;100253.50;;;7.60;81.81
75609;BME280;64194;51.044;13.780;2022-11-15T03:09:50;100250.84;;;7.60;81.69
75609;BME280;64194;51.044;13.780;2022-11-15T03:14:41;100244.03;;;7.55;81.90
75609;BME280;64194;51.044;13.780;2022-11-15T03:19:17;100237.19;;;7.51;81.67
75609;BME280;64194;51.044;13.780;2022-11-15T03:23:41;100243.31;;;7.52;82.03
75609;BME280;64194;51.044;13.780;2022-11-15T03:28:04;100237.31;;;7.48;81.96
75609;BME280;64194;51.044;13.780;2022-11-15T03:32:29;100235.78;;;7.44;82.05
75609;BME280;64194;51.044;13.780;2022-11-15T03:36:50;100227.06;;;7.42;82.18
75609;BME280;64194;51.044;13.780;2022-11-15T03:41:28;100227.47;;;7.52;81.82
75609;BME280;64194;51.044;13.780;2022-11-15T03:45:54;100232.19;;;7.45;82.12
75609;BME280;64194;51.044;13.780;2022-11-15T03:50:21;100224.91;;;7.50;81.82
75609;BME280;64194;51.044;13.780;2022-11-15T03:54:56;100227.59;;;7.49;81.83
75609;BME280;64194;51.044;13.780;2022-11-15T03:59:16;100219.75;;;7.47;81.62
75609;BME280;64194;51.044;13.780;2022-11-15T04:03:36;100212.47;;;7.52;81.67
75609;BME280;64194;51.044;13.780;2022-11-15T04:07:56;100218.06;;;7.46;81.66
75609;BME280;64194;51.044;13.780;2022-11-15T04:12:16;100215.78;;;7.39;82.05
75609;BME280;64194;51.044;13.780;2022-11-15T04:16:50;100202.03;;;7.32;82.27
75609;BME280;64194;51.044;13.780;2022-11-15T04:21:10;100209.94;;;7.32;82.31
75609;BME280;64194;51.044;13.780;2022-11-15T04:25:51;100211.19;;;7.42;81.86
75609;BME280;64194;51.044;13.780;2022-11-15T04:30:12;100198.63;;;7.30;82.23
75609;BME280;64194;51.044;13.780;2022-11-15T04:34:32;100197.84;;;7.45;81.82
75609;BME280;64194;51.044;13.780;2022-11-15T04:38:52;100185.81;;;7.40;82.07
75609;BME280;64194;51.044;13.780;2022-11-15T04:43:12;100192.81;;;7.41;82.02
75609;BME280;64194;51.044;13.780;2022-11-15T04:47:32;100190.41;;;7.36;82.11
75609;BME280;64194;51.044;13.780;2022-11-15T04:51:53;100198.94;;;7.41;81.98
75609;BME280;64194;51.044;13.780;2022-11-15T04:56:13;100190.41;;;7.36;81.97
75609;BME280;64194;51.044;13.780;2022-11-15T05:00:33;100189.75;;;7.31;82.11
75609;BME280;64194;51.044;13.780;2022-11-15T05:04:53;100185.81;;;7.40;82.10
75609;BME280;64194;51.044;13.780;2022-11-15T05:09:13;100189.91;;;7.28;82.38
75609;BME280;64194;51.044;13.780;2022-11-15T05:13:34;100185.72;;;7.24;82.58
75609;BME280;64194;51.044;13.780;2022-11-15T05:17:59;100174.66;;;7.16;82.70
75609;BME280;64194;51.044;13.780;2022-11-15T05:22:20;100181.59;;;7.19;82.48
75609;BME280;64194;51.044;13.780;2022-11-15T05:26:40;100172.66;;;7.21;82.53
75609;BME280;64194;51.044;13.780;2022-11-15T05:31:05;100174.34;;;7.22;82.30
75609;BME280;64194;51.044;13.780;2022-11-15T05:35:30;100179.81;;;7.19;82.49
75609;BME280;64194;51.044;13.780;2022-11-15T05:39:53;100172.03;;;7.16;82.46
75609;BME280;64194;51.044;13.780;2022-11-15T05:44:17;100169.00;;;7.24;81.90
75609;BME280;64194;51.044;13.780;2022-11-15T05:48:41;100171.59;;;7.25;82.15
75609;BME280;64194;51.044;13.780;2022-11-15T05:53:03;100174.13;;;7.27;82.16
75609;BME280;64194;51.044;13.780;2022-11-15T05:57:24;100182.44;;;7.19;82.45
75609;BME280;64194;51.044;13.780;2022-11-15T06:01:45;100176.59;;;7.12;82.42
75609;BME280;64194;51.044;13.780;2022-11-15T06:06:05;100184.28;;;7.17;82.47
75609;BME280;64194;51.044;13.780;2022-11-15T06:10:29;100182.59;;;7.16;82.20
75609;BME280;64194;51.044;13.780;2022-11-15T06:14:49;100184.38;;;7.15;82.57
75609;BME280;64194;51.044;13.780;2022-11-15T06:19:09;100181.59;;;7.19;82.39
75609;BME280;64194;51.044;13.780;2022-11-15T06:23:32;100173.25;;;7.26;82.27
75609;BME280;64194;51.044;13.780;2022-11-15T06:27:54;100176.94;;;7.24;82.19
75609;BME280;64194;51.044;13.780;2022-11-15T06:32:14;100190.69;;;7.30;82.23
75609;BME280;64194;51.044;13.780;2022-11-15T06:36:35;100189.69;;;7.33;81.96
75609;BME280;64194;51.044;13.780;2022-11-15T06:41:01;100190.91;;;7.43;81.62
75609;BME280;64194;51.044;13.780;2022-11-15T06:45:22;100187.28;;;7.63;80.94
75609;BME280;64194;51.044;13.780;2022-11-15T06:49:42;100186.81;;;7.72;80.15
75609;BME280;64194;51.044;13.780;2022-11-15T06:54:05;100178.69;;;7.92;79.54
75609;BME280;64194;51.044;13.780;2022-11-15T06:58:26;100181.47;;;8.06;78.71
75609;BME280;64194;51.044;13.780;2022-11-15T07:02:47;100189.19;;;8.26;77.98
75609;BME280;64194;51.044;13.780;2022-11-15T07:07:09;100190.31;;;8.55;76.44
75609;BME280;64194;51.044;13.780;2022-11-15T07:11:29;100193.72;;;8.73;76.01
75609;BME280;64194;51.044;13.780;2022-11-15T07:15:50;100184.81;;;8.90;75.29
75609;BME280;64194;51.044;13.780;2022-11-15T07:20:11;100206.25;;;9.16;74.24
75609;BME280;64194;51.044;13.780;2022-11-15T07:24:32;100205.44;;;9.46;72.97
75609;BME280;64194;51.044;13.780;2022-11-15T07:28:53;100207.53;;;9.85;71.28
75609;BME280;64194;51.044;13.780;2022-11-15T07:33:13;100198.50;;;10.31;69.79
75609;BME280;64194;51.044;13.780;2022-11-15T07:37:33;100198.84;;;10.82;68.04
75609;BME280;64194;51.044;13.780;2022-11-15T07:41:53;100207.59;;;11.11;66.77
75609;BME280;64194;51.044;13.780;2022-11-15T07:46:33;100206.25;;;11.57;64.72
75609;BME280;64194;51.044;13.780;2022-11-15T07:50:54;100210.28;;;11.90;63.80
75609;BME280;64194;51.044;13.780;2022-11-15T07:55:14;100199.16;;;12.10;62.94
75609;BME280;64194;51.044;13.780;2022-11-15T07:59:35;100193.13;;;12.57;61.34
75609;BME280;64194;51.044;13.780;2022-11-15T08:03:55;100200.88;;;13.09;59.56
75609;BME280;64194;51.044;13.780;2022-11-15T08:08:15;100205.47;;;13.07;60.01
75609;BME280;64194;51.044;13.780;2022-11-15T08:12:36;100197.97;;;13.83;57.36
75609;BME280;64194;51.044;13.780;2022-11-15T08:16:56;100187.84;;;14.33;55.36
75609;BME280;64194;51.044;13.780;2022-11-15T08:21:19;100187.00;;;14.88;53.84
75609;BME280;64194;51.044;13.780;2022-11-15T08:25:39;100183.22;;;15.34;52.33
75609;BME280;64194;51.044;13.780;2022-11-15T08:36:01;100170.84;;;16.06;50.35
75609;BME280;64194;51.044;13.780;2022-11-15T08:40:21;100182.16;;;16.70;48.11
75609;BME280;64194;51.044;13.780;2022-11-15T08:44:43;100182.03;;;17.12;47.46
75609;BME280;64194;51.044;13.780;2022-11-15T08:49:03;100179.09;;;18.38;44.18
75609;BME280;64194;51.044;13.780;2022-11-15T08:53:24;100176.66;;;18.82;42.92
75609;BME280;64194;51.044;13.780;2022-11-15T08:57:45;100172.19;;;18.73;42.98
75609;BME280;64194;51.044;13.780;2022-11-15T09:02:12;100162.22;;;18.83;42.36
75609;BME280;64194;51.044;13.780;2022-11-15T09:06:41;100168.38;;;18.93;42.54
75609;BME280;64194;51.044;13.780;2022-11-15T09:11:04;100163.16;;;19.54;40.76
75609;BME280;64194;51.044;13.780;2022-11-15T09:15:24;100169.41;;;20.42;38.72
75609;BME280;64194;51.044;13.780;2022-11-15T09:19:48;100159.25;;;20.70;38.07
75609;BME280;64194;51.044;13.780;2022-11-15T09:30:14;100159.53;;;21.01;37.37
75609;BME280;64194;51.044;13.780;2022-11-15T09:34:35;100151.66;;;20.65;38.24
75609;BME280;64194;51.044;13.780;2022-11-15T09:39:10;100149.44;;;21.11;36.88
75609;BME280;64194;51.044;13.780;2022-11-15T09:43:49;100147.16;;;21.40;36.44
75609;BME280;64194;51.044;13.780;2022-11-15T09:53:24;100148.47;;;22.80;33.68
75609;BME280;64194;51.044;13.780;2022-11-15T09:58:07;100149.91;;;23.61;32.01
75609;BME280;64194;51.044;13.780;2022-11-15T10:02:33;100143.22;;;23.41;32.71
75609;BME280;64194;51.044;13.780;2022-11-15T10:06:54;100136.28;;;23.15;32.95
75609;BME280;64194;51.044;13.780;2022-11-15T10:11:07;100128.59;;;22.57;33.60
75609;BME280;64194;51.044;13.780;2022-11-15T10:15:33;100124.56;;;23.46;32.35
75609;BME280;64194;51.044;13.780;2022-11-15T10:20:15;100115.53;;;23.76;31.34
75609;BME280;64194;51.044;13.780;2022-11-15T10:24:24;100123.50;;;24.59;30.15
75609;BME280;64194;51.044;13.780;2022-11-15T10:28:36;100098.59;;;24.26;30.86
75609;BME280;64194;51.044;13.780;2022-11-15T10:37:30;100097.97;;;24.89;29.55
75609;BME280;64194;51.044;13.780;2022-11-15T10:41:37;100087.13;;;25.11;29.36
75609;BME280;64194;51.044;13.780;2022-11-15T10:45:40;100079.81;;;25.11;29.55
75609;BME280;64194;51.044;13.780;2022-11-15T10:50:03;100073.28;;;25.69;28.21
75609;BME280;64194;51.044;13.780;2022-11-15T10:54:07;100087.66;;;25.21;29.49
75609;BME280;64194;51.044;13.780;2022-11-15T10:58:53;100071.88;;;26.01;28.15
75609;BME280;64194;51.044;13.780;2022-11-15T11:07:00;100068.59;;;26.19;27.52
75609;BME280;64194;51.044;13.780;2022-11-15T11:11:03;100058.72;;;26.39;27.25
75609;BME280;64194;51.044;13.780;2022-11-15T11:15:12;100049.63;;;26.80;26.99
75609;BME280;64194;51.044;13.780;2022-11-15T11:19:30;100048.88;;;26.92;26.29
75609;BME280;64194;51.044;13.780;2022-11-15T11:23:51;100037.63;;;27.22;25.91
75609;BME280;64194;51.044;13.780;2022-11-15T11:36:59;100014.50;;;28.61;24.01
75609;BME280;64194;51.044;13.780;2022-11-15T11:50:19;100008.88;;;27.45;25.32
75609;BME280;64194;51.044;13.780;2022-11-15T11:54:36;99998.88;;;26.65;26.56
75609;BME280;64194;51.044;13.780;2022-11-15T11:58:41;99995.66;;;27.82;24.96
75609;BME280;64194;51.044;13.780;2022-11-15T12:07:23;99976.75;;;27.80;24.53
75609;BME280;64194;51.044;13.780;2022-11-15T12:11:55;99978.25;;;27.04;25.93
75609;BME280;64194;51.044;13.780;2022-11-15T12:16:12;99969.22;;;27.69;24.88
75609;BME280;64194;51.044;13.780;2022-11-15T12:20:20;99970.91;;;27.51;25.46
75609;BME280;64194;51.044;13.780;2022-11-15T12:24:26;99946.94;;;27.79;25.18
75609;BME280;64194;51.044;13.780;2022-11-15T12:29:02;99950.47;;;28.44;24.19
75609;BME280;64194;51.044;13.780;2022-11-15T12:33:41;99954.53;;;27.51;24.65
75609;BME280;64194;51.044;13.780;2022-11-15T12:37:48;99936.66;;;27.81;25.23
75609;BME280;64194;51.044;13.780;2022-11-15T12:46:03;99925.72;;;27.87;24.29
75609;BME280;64194;51.044;13.780;2022-11-15T12:50:12;99928.13;;;27.05;25.63
75609;BME280;64194;51.044;13.780;2022-11-15T12:58:41;99913.03;;;28.51;23.55
75609;BME280;64194;51.044;13.780;2022-11-15T13:02:44;99909.81;;;28.29;24.13
75609;BME280;64194;51.044;13.780;2022-11-15T13:10:49;99903.53;;;28.91;22.75
75609;BME280;64194;51.044;13.780;2022-11-15T13:19:15;99893.66;;;27.70;24.78
75609;BME280;64194;51.044;13.780;2022-11-15T13:23:16;99898.75;;;27.20;25.01
75609;BME280;64194;51.044;13.780;2022-11-15T13:27:19;99899.81;;;26.12;26.51
75609;BME280;64194;51.044;13.780;2022-11-15T13:31:28;99899.16;;;24.22;29.25
75609;BME280;64194;51.044;13.780;2022-11-15T13:35:32;99897.69;;;23.17;31.14
75609;BME280;64194;51.044;13.780;2022-11-15T13:39:34;99893.94;;;22.04;32.83
75609;BME280;64194;51.044;13.780;2022-11-15T13:43:38;99885.16;;;20.51;36.09
75609;BME280;64194;51.044;13.780;2022-11-15T13:47:40;99901.16;;;19.78;37.29
75609;BME280;64194;51.044;13.780;2022-11-15T13:51:50;99892.09;;;18.40;39.77
75609;BME280;64194;51.044;13.780;2022-11-15T13:55:56;99894.22;;;16.33;44.98
75609;BME280;64194;51.044;13.780;2022-11-15T14:00:03;99895.13;;;15.44;47.51
75609;BME280;64194;51.044;13.780;2022-11-15T14:04:13;99877.88;;;14.76;49.71
75609;BME280;64194;51.044;13.780;2022-11-15T14:12:28;99881.22;;;14.05;52.00
75609;BME280;64194;51.044;13.780;2022-11-15T14:16:35;99868.25;;;13.57;53.14
75609;BME280;64194;51.044;13.780;2022-11-15T14:20:38;99876.47;;;13.21;54.10
75609;BME280;64194;51.044;13.780;2022-11-15T14:24:45;99870.53;;;13.06;54.83
75609;BME280;64194;51.044;13.780;2022-11-15T14:28:47;99869.75;;;12.93;54.99
75609;BME280;64194;51.044;13.780;2022-11-15T14:32:50;99875.41;;;13.12;54.84
75609;BME280;64194;51.044;13.780;2022-11-15T14:36:52;99862.97;;;13.78;52.77
75609;BME280;64194;51.044;13.780;2022-11-15T14:40:54;99871.19;;;13.86;52.00
75609;BME280;64194;51.044;13.780;2022-11-15T14:45:00;99851.44;;;12.66;55.54
75609;BME280;64194;51.044;13.780;2022-11-15T14:49:01;99855.50;;;11.89;57.92
75609;BME280;64194;51.044;13.780;2022-11-15T14:53:03;99856.13;;;11.32;60.06
75609;BME280;64194;51.044;13.780;2022-11-15T14:57:05;99847.09;;;10.97;61.40
75609;BME280;64194;51.044;13.780;2022-11-15T15:01:20;99843.59;;;10.59;62.56
75609;BME280;64194;51.044;13.780;2022-11-15T15:05:31;99849.53;;;10.37;63.57
75609;BME280;64194;51.044;13.780;2022-11-15T15:09:33;99858.53;;;10.22;64.00
75609;BME280;64194;51.044;13.780;2022-11-15T15:13:35;99850.56;;;9.95;65.36
75609;BME280;64194;51.044;13.780;2022-11-15T15:17:37;99861.94;;;9.70;66.05
75609;BME280;64194;51.044;13.780;2022-11-15T15:21:38;99848.94;;;9.65;66.15
75609;BME280;64194;51.044;13.780;2022-11-15T15:25:40;99841.16;;;9.50;66.89
75609;BME280;64194;51.044;13.780;2022-11-15T15:29:43;99848.75;;;9.28;67.79
75609;BME280;64194;51.044;13.780;2022-11-15T15:33:44;99834.59;;;9.14;67.96
75609;BME280;64194;51.044;13.780;2022-11-15T15:37:47;99826.47;;;9.03;68.74
75609;BME280;64194;51.044;13.780;2022-11-15T15:41:49;99839.41;;;8.79;69.78
75609;BME280;64194;51.044;13.780;2022-11-15T15:46:00;99840.38;;;8.64;69.98
75609;BME280;64194;51.044;13.780;2022-11-15T15:50:02;99836.28;;;8.59;70.42
75609;BME280;64194;51.044;13.780;2022-11-15T15:54:04;99831.66;;;8.48;70.79
75609;BME280;64194;51.044;13.780;2022-11-15T15:58:06;99825.94;;;8.40;71.20
75609;BME280;64194;51.044;13.780;2022-11-15T16:02:14;99830.19;;;8.28;72.08
75609;BME280;64194;51.044;13.780;2022-11-15T16:06:34;99829.97;;;8.17;72.19
75609;BME280;64194;51.044;13.780;2022-11-15T16:10:36;99828.59;;;8.10;72.33
75609;BME280;64194;51.044;13.780;2022-11-15T16:14:38;99835.97;;;8.05;72.68
75609;BME280;64194;51.044;13.780;2022-11-15T16:18:40;99834.28;;;7.88;73.36
75609;BME280;64194;51.044;13.780;2022-11-15T16:22:41;99836.09;;;7.88;73.22
75609;BME280;64194;51.044;13.780;2022-11-15T16:26:44;99825.28;;;7.77;73.54
75609;BME280;64194;51.044;13.780;2022-11-15T16:30:46;99819.31;;;7.73;73.73
75609;BME280;64194;51.044;13.780;2022-11-15T16:35:20;99826.16;;;7.62;74.59
75609;BME280;64194;51.044;13.780;2022-11-15T16:39:21;99835.00;;;7.61;74.52
75609;BME280;64194;51.044;13.780;2022-11-15T16:48:53;99823.78;;;7.41;75.02
75609;BME280;64194;51.044;13.780;2022-11-15T16:52:57;99814.31;;;7.37;75.23
75609;BME280;64194;51.044;13.780;2022-11-15T16:56:59;99808.34;;;7.34;75.23
75609;BME280;64194;51.044;13.780;2022-11-15T17:01:00;99812.00;;;7.31;75.75
75609;BME280;64194;51.044;13.780;2022-11-15T17:05:02;99800.78;;;7.28;75.85
75609;BME280;64194;51.044;13.780;2022-11-15T17:09:17;99792.31;;;7.21;75.62
75609;BME280;64194;51.044;13.780;2022-11-15T17:13:19;99796.09;;;7.17;75.80
75609;BME280;64194;51.044;13.780;2022-11-15T17:17:20;99788.69;;;7.08;76.26
75609;BME280;64194;51.044;13.780;2022-11-15T17:21:22;99786.44;;;7.00;76.67
75609;BME280;64194;51.044;13.780;2022-11-15T17:25:24;99778.59;;;6.99;76.93
75609;BME280;64194;51.044;13.780;2022-11-15T17:29:25;99788.25;;;7.00;76.60
75609;BME280;64194;51.044;13.780;2022-11-15T17:33:27;99792.06;;;6.94;76.78
75609;BME280;64194;51.044;13.780;2022-11-15T17:37:28;99783.03;;;6.83;77.29
75609;BME280;64194;51.044;13.780;2022-11-15T17:41:30;99781.94;;;6.87;76.59
75609;BME280;64194;51.044;13.780;2022-11-15T17:45:32;99786.44;;;6.85;77.15
75609;BME280;64194;51.044;13.780;2022-11-15T17:49:33;99777.75;;;6.83;76.96
75609;BME280;64194;51.044;13.780;2022-11-15T17:53:41;99780.81;;;6.75;77.44
75609;BME280;64194;51.044;13.780;2022-11-15T17:57:43;99781.41;;;6.64;77.70
75609;BME280;64194;51.044;13.780;2022-11-15T18:01:45;99778.38;;;6.55;78.31
75609;BME280;64194;51.044;13.780;2022-11-15T18:05:46;99776.69;;;6.54;78.18
75609;BME280;64194;51.044;13.780;2022-11-15T18:09:48;99770.88;;;6.47;78.53
75609;BME280;64194;51.044;13.780;2022-11-15T18:13:53;99773.19;;;6.53;78.33
75609;BME280;64194;51.044;13.780;2022-11-15T18:17:54;99763.91;;;6.46;78.56
75609;BME280;64194;51.044;13.780;2022-11-15T18:22:01;99765.94;;;6.41;78.56
75609;BME280;64194;51.044;13.780;2022-11-15T18:26:06;99753.00;;;6.37;78.79
75609;BME280;64194;51.044;13.780;2022-11-15T18:30:08;99753.66;;;6.40;78.43
75609;BME280;64194;51.044;13.780;2022-11-15T18:34:10;99746.19;;;6.33;78.69
75609;BME280;64194;51.044;13.780;2022-11-15T18:38:11;99745.47;;;6.29;79.17
75609;BME280;64194;51.044;13.780;2022-11-15T18:42:13;99738.50;;;6.28;78.88
75609;BME280;64194;51.044;13.780;2022-11-15T18:46:17;99736.09;;;6.23;78.79
75609;BME280;64194;51.044;13.780;2022-11-15T18:50:19;99732.50;;;6.09;79.37
75609;BME280;64194;51.044;13.780;2022-11-15T18:54:21;99735.50;;;6.01;79.77
75609;BME280;64194;51.044;13.780;2022-11-15T18:58:31;99731.09;;;6.02;79.63
75609;BME280;64194;51.044;13.780;2022-11-15T19:02:34;99718.09;;;5.99;79.57
75609;BME280;64194;51.044;13.780;2022-11-15T19:06:41;99720.88;;;5.96;79.56
75609;BME280;64194;51.044;13.780;2022-11-15T19:10:42;99729.25;;;6.04;79.12
75609;BME280;64194;51.044;13.780;2022-11-15T19:14:44;99720.41;;;6.05;78.99
75609;BME280;64194;51.044;13.780;2022-11-15T19:18:45;99722.25;;;6.03;78.84
75609;BME280;64194;51.044;13.780;2022-11-15T19:22:47;99726.31;;;5.93;79.29
75609;BME280;64194;51.044;13.780;2022-11-15T19:26:49;99714.31;;;5.87;79.12
75609;BME280;64194;51.044;13.780;2022-11-15T19:30:50;99705.75;;;5.82;79.63
75609;BME280;64194;51.044;13.780;2022-11-15T19:34:52;99719.59;;;5.85;79.58
75609;BME280;64194;51.044;13.780;2022-11-15T19:38:55;99701.78;;;5.73;79.89
75609;BME280;64194;51.044;13.780;2022-11-15T19:42:56;99723.34;;;5.81;79.51
75609;BME280;64194;51.044;13.780;2022-11-15T19:46:58;99706.31;;;5.88;78.91
75609;BME280;64194;51.044;13.780;2022-11-15T19:51:01;99710.16;;;5.81;79.26
75609;BME280;64194;51.044;13.780;2022-11-15T19:55:03;99713.88;;;5.77;79.27
75609;BME280;64194;51.044;13.780;2022-11-15T19:59:06;99704.59;;;5.70;79.29
75609;BME280;64194;51.044;13.780;2022-11-15T20:03:07;99703.75;;;5.87;78.58
75609;BME280;64194;51.044;13.780;2022-11-15T20:07:09;99696.38;;;5.76;78.96
75609;BME280;64194;51.044;13.780;2022-11-15T20:11:11;99699.16;;;5.73;79.00
75609;BME280;64194;51.044;13.780;2022-11-15T20:15:13;99707.59;;;5.80;78.56
75609;BME280;64194;51.044;13.780;2022-11-15T20:19:15;99693.56;;;5.79;78.85
75609;BME280;64194;51.044;13.780;2022-11-15T20:23:17;99684.44;;;5.69;79.38
75609;BME280;64194;51.044;13.780;2022-11-15T20:27:19;99690.63;;;5.68;79.65
75609;BME280;64194;51.044;13.780;2022-11-15T20:31:20;99695.28;;;5.63;79.89
75609;BME280;64194;51.044;13.780;2022-11-15T20:35:22;99689.72;;;5.69;79.97
75609;BME280;64194;51.044;13.780;2022-11-15T20:39:24;99699.00;;;5.76;79.90
75609;BME280;64194;51.044;13.780;2022-11-15T20:43:25;99697.59;;;5.69;80.13
75609;BME280;64194;51.044;13.780;2022-11-15T20:47:29;99693.38;;;5.67;80.52
75609;BME280;64194;51.044;13.780;2022-11-15T20:51:31;99692.34;;;5.69;80.44
75609;BME280;64194;51.044;13.780;2022-11-15T20:55:38;99680.19;;;5.67;80.63
75609;BME280;64194;51.044;13.780;2022-11-15T20:59:41;99678.63;;;5.80;80.00
75609;BME280;64194;51.044;13.780;2022-11-15T21:03:42;99668.31;;;5.75;79.90
75609;BME280;64194;51.044;13.780;2022-11-15T21:07:44;99669.72;;;5.82;80.00
75609;BME280;64194;51.044;13.780;2022-11-15T21:11:46;99655.44;;;5.86;79.81
75609;BME280;64194;51.044;13.780;2022-11-15T21:16:06;99658.38;;;5.80;79.72
75609;BME280;64194;51.044;13.780;2022-11-15T21:20:08;99650.03;;;5.72;79.94
75609;BME280;64194;51.044;13.780;2022-11-15T21:24:11;99650.13;;;5.71;80.03
75609;BME280;64194;51.044;13.780;2022-11-15T21:28:13;99640.34;;;5.73;79.66
75609;BME280;64194;51.044;13.780;2022-11-15T21:32:15;99642.81;;;5.76;79.87
75609;BME280;64194;51.044;13.780;2022-11-15T21:36:16;99644.53;;;5.77;79.87
75609;BME280;64194;51.044;13.780;2022-11-15T21:40:18;99648.88;;;5.78;79.95
75609;BME280;64194;51.044;13.780;2022-11-15T21:44:22;99639.16;;;5.78;79.90
75609;BME280;64194;51.044;13.780;2022-11-15T21:48:25;99628.41;;;5.83;79.97
75609;BME280;64194;51.044;13.780;2022-11-15T21:52:27;99634.91;;;5.76;79.76
75609;BME280;64194;51.044;13.780;2022-11-15T21:56:29;99628.44;;;5.66;80.49
75609;BME280;64194;51.044;13.780;2022-11-15T22:00:31;99630.47;;;5.61;80.81
75609;BME280;64194;51.044;13.780;2022-11-15T22:04:51;99621.22;;;5.69;80.48
75609;BME280;64194;51.044;13.780;2022-11-15T22:08:53;99625.88;;;5.64;80.79
75609;BME280;64194;51.044;13.780;2022-11-15T22:12:54;99631.00;;;5.67;81.17
75609;BME280;64194;51.044;13.780;2022-11-15T22:16:56;99614.22;;;5.68;80.69
75609;BME280;64194;51.044;13.780;2022-11-15T22:21:05;99627.16;;;5.73;80.65
75609;BME280;64194;51.044;13.780;2022-11-15T22:25:07;99603.66;;;5.85;80.38
75609;BME280;64194;51.044;13.780;2022-11-15T22:29:09;99593.59;;;5.94;80.15
75609;BME280;64194;51.044;13.780;2022-11-15T22:33:10;99592.66;;;5.95;80.30
75609;BME280;64194;51.044;13.780;2022-11-15T22:37:12;99583.44;;;5.86;80.26
75609;BME280;64194;51.044;13.780;2022-11-15T22:41:21;99580.75;;;5.87;80.34
75609;BME280;64194;51.044;13.780;2022-11-15T22:45:23;99571.94;;;5.88;80.47
75609;BME280;64194;51.044;13.780;2022-11-15T22:49:24;99568.66;;;5.83;80.53
75609;BME280;64194;51.044;13.780;2022-11-15T22:53:26;99567.63;;;5.86;80.64
75609;BME280;64194;51.044;13.780;2022-11-15T22:57:27;99558.25;;;5.80;80.47
75609;BME280;64194;51.044;13.780;2022-11-15T23:01:29;99550.69;;;5.74;81.12
75609;BME280;64194;51.044;13.780;2022-11-15T23:05:30;99546.94;;;5.78;80.60
75609;BME280;64194;51.044;13.780;2022-11-15T23:09:35;99539.50;;;5.86;80.05
75609;BME280;64194;51.044;13.780;2022-11-15T23:13:37;99538.91;;;5.81;80.52
75609;BME280;64194;51.044;13.780;2022-11-15T23:17:38;99533.94;;;5.75;80.79
75609;BME280;64194;51.044;13.780;2022-11-15T23:21:42;99547.41;;;5.86;80.76
75609;BME280;64194;51.044;13.780;2022-11-15T23:26:04;99535.41;;;5.81;80.32
75609;BME280;64194;51.044;13.780;2022-11-15T23:30:06;99524.94;;;5.79;80.90
75609;BME280;64194;51.044;13.780;2022-11-15T23:34:26;99514.91;;;5.70;81.48
75609;BME280;64194;51.044;13.780;2022-11-15T23:38:31;99509.91;;;5.81;81.08
75609;BME280;64194;51.044;13.780;2022-11-15T23:42:33;99507.69;;;5.74;81.57